sensor_id;sensor_type;location;lat;lon;timestamp;P1;durP1;ratioP1;P2;durP2;ratioP2
65238;SDS011;51827;51.186;6.926;2023-06-19T00:00:48;4.53;;;3.42;;
65238;SDS011;51827;51.186;6.926;2023-06-19T00:01:49;4.80;;;3.70;;
65238;SDS011;51827;51.186;6.926;2023-06-19T00:02:49;5.53;;;3.80;;
65238;SDS011;51827;51.186;6.926;2023-06-19T00:03:49;5.00;;;3.37;;
65238;SDS011;51827;51.186;6.926;2023-06-19T00:04:49;5.23;;;3.70;;
65238;SDS011;51827;51.186;6.926;2023-06-19T00:05:50;5.70;;;3.60;;
65238;SDS011;51827;51.186;6.926;2023-06-19T00:06:50;7.40;;;3.70;;
65238;SDS011;51827;51.186;6.926;2023-06-19T00:07:50;5.67;;;3.90;;
65238;SDS011;51827;51.186;6.926;2023-06-19T00:08:51;5.32;;;3.72;;
65238;SDS011;51827;51.186;6.926;2023-06-19T00:09:51;5.07;;;3.80;;
65238;SDS011;51827;51.186;6.926;2023-06-19T00:10:51;5.13;;;3.60;;
65238;SDS011;51827;51.186;6.926;2023-06-19T00:11:51;5.40;;;4.00;;
65238;SDS011;51827;51.186;6.926;2023-06-19T00:12:52;4.97;;;3.60;;
65238;SDS011;51827;51.186;6.926;2023-06-19T00:13:52;4.73;;;3.90;;
65238;SDS011;51827;51.186;6.926;2023-06-19T00:14:52;5.37;;;4.00;;
65238;SDS011;51827;51.186;6.926;2023-06-19T00:15:52;5.60;;;3.67;;
65238;SDS011;51827;51.186;6.926;2023-06-19T00:16:53;4.77;;;3.67;;
65238;SDS011;51827;51.186;6.926;2023-06-19T00:17:53;4.90;;;3.53;;
65238;SDS011;51827;51.186;6.926;2023-06-19T00:18:53;4.77;;;3.33;;
65238;SDS011;51827;51.186;6.926;2023-06-19T00:19:53;4.90;;;3.53;;
65238;SDS011;51827;51.186;6.926;2023-06-19T00:20:54;5.27;;;3.90;;
65238;SDS011;51827;51.186;6.926;2023-06-19T00:21:54;4.77;;;3.73;;
65238;SDS011;51827;51.186;6.926;2023-06-19T00:22:54;5.13;;;3.80;;
65238;SDS011;51827;51.186;6.926;2023-06-19T00:23:55;5.20;;;3.80;;
65238;SDS011;51827;51.186;6.926;2023-06-19T00:24:55;4.95;;;4.00;;
65238;SDS011;51827;51.186;6.926;2023-06-19T00:25:55;5.27;;;3.53;;
65238;SDS011;51827;51.186;6.926;2023-06-19T00:26:55;5.73;;;3.67;;
65238;SDS011;51827;51.186;6.926;2023-06-19T00:27:56;4.87;;;3.70;;
65238;SDS011;51827;51.186;6.926;2023-06-19T00:28:56;5.33;;;3.73;;
65238;SDS011;51827;51.186;6.926;2023-06-19T00:29:56;5.70;;;3.45;;
65238;SDS011;51827;51.186;6.926;2023-06-19T00:30:57;7.37;;;3.57;;
65238;SDS011;51827;51.186;6.926;2023-06-19T00:31:58;5.30;;;3.70;;
65238;SDS011;51827;51.186;6.926;2023-06-19T00:32:59;6.25;;;3.80;;
65238;SDS011;51827;51.186;6.926;2023-06-19T00:33:59;6.67;;;3.90;;
65238;SDS011;51827;51.186;6.926;2023-06-19T00:34:59;5.67;;;3.73;;
65238;SDS011;51827;51.186;6.926;2023-06-19T00:35:59;5.57;;;4.03;;
65238;SDS011;51827;51.186;6.926;2023-06-19T00:37:00;5.70;;;4.00;;
65238;SDS011;51827;51.186;6.926;2023-06-19T00:38:00;6.17;;;3.50;;
65238;SDS011;51827;51.186;6.926;2023-06-19T00:39:00;4.57;;;3.50;;
65238;SDS011;51827;51.186;6.926;2023-06-19T00:40:00;5.50;;;3.77;;
65238;SDS011;51827;51.186;6.926;2023-06-19T00:41:01;5.33;;;3.70;;
65238;SDS011;51827;51.186;6.926;2023-06-19T00:42:01;5.63;;;4.10;;
65238;SDS011;51827;51.186;6.926;2023-06-19T00:43:01;6.67;;;3.90;;
65238;SDS011;51827;51.186;6.926;2023-06-19T00:44:02;5.60;;;3.53;;
65238;SDS011;51827;51.186;6.926;2023-06-19T00:45:02;6.53;;;3.87;;
65238;SDS011;51827;51.186;6.926;2023-06-19T00:46:03;7.47;;;3.70;;
65238;SDS011;51827;51.186;6.926;2023-06-19T00:47:04;5.05;;;3.92;;
65238;SDS011;51827;51.186;6.926;2023-06-19T00:48:04;5.60;;;3.85;;
65238;SDS011;51827;51.186;6.926;2023-06-19T00:49:05;5.03;;;4.00;;
65238;SDS011;51827;51.186;6.926;2023-06-19T00:51:06;5.50;;;3.57;;
65238;SDS011;51827;51.186;6.926;2023-06-19T00:52:07;5.67;;;4.03;;
65238;SDS011;51827;51.186;6.926;2023-06-19T00:53:07;5.82;;;3.85;;
65238;SDS011;51827;51.186;6.926;2023-06-19T00:54:08;5.75;;;4.00;;
65238;SDS011;51827;51.186;6.926;2023-06-19T00:55:08;6.82;;;4.07;;
65238;SDS011;51827;51.186;6.926;2023-06-19T00:56:09;6.47;;;4.13;;
65238;SDS011;51827;51.186;6.926;2023-06-19T00:57:09;6.13;;;4.20;;
65238;SDS011;51827;51.186;6.926;2023-06-19T00:58:10;4.50;;;3.28;;
65238;SDS011;51827;51.186;6.926;2023-06-19T00:59:13;5.90;;;3.95;;
65238;SDS011;51827;51.186;6.926;2023-06-19T01:00:18;5.07;;;3.88;;
65238;SDS011;51827;51.186;6.926;2023-06-19T01:01:19;7.10;;;3.60;;
65238;SDS011;51827;51.186;6.926;2023-06-19T01:02:20;5.50;;;3.70;;
65238;SDS011;51827;51.186;6.926;2023-06-19T01:03:23;6.70;;;3.95;;
65238;SDS011;51827;51.186;6.926;2023-06-19T01:04:24;5.95;;;4.18;;
65238;SDS011;51827;51.186;6.926;2023-06-19T01:05:24;8.83;;;4.00;;
65238;SDS011;51827;51.186;6.926;2023-06-19T01:06:27;4.68;;;3.70;;
65238;SDS011;51827;51.186;6.926;2023-06-19T01:08:55;5.18;;;3.88;;
65238;SDS011;51827;51.186;6.926;2023-06-19T01:10:02;5.40;;;3.85;;
65238;SDS011;51827;51.186;6.926;2023-06-19T01:11:06;6.68;;;3.83;;
65238;SDS011;51827;51.186;6.926;2023-06-19T01:12:10;5.95;;;3.97;;
65238;SDS011;51827;51.186;6.926;2023-06-19T01:14:36;5.93;;;4.05;;
65238;SDS011;51827;51.186;6.926;2023-06-19T01:15:41;7.57;;;4.15;;
65238;SDS011;51827;51.186;6.926;2023-06-19T01:17:43;4.93;;;3.93;;
65238;SDS011;51827;51.186;6.926;2023-06-19T01:18:45;6.00;;;4.05;;
65238;SDS011;51827;51.186;6.926;2023-06-19T01:19:46;4.95;;;3.90;;
65238;SDS011;51827;51.186;6.926;2023-06-19T01:20:48;6.30;;;4.10;;
65238;SDS011;51827;51.186;6.926;2023-06-19T01:21:49;5.60;;;4.00;;
65238;SDS011;51827;51.186;6.926;2023-06-19T01:22:49;6.90;;;4.10;;
65238;SDS011;51827;51.186;6.926;2023-06-19T01:23:49;6.17;;;4.50;;
65238;SDS011;51827;51.186;6.926;2023-06-19T01:24:50;5.63;;;3.73;;
65238;SDS011;51827;51.186;6.926;2023-06-19T01:25:50;5.67;;;3.70;;
65238;SDS011;51827;51.186;6.926;2023-06-19T01:26:50;5.43;;;3.93;;
65238;SDS011;51827;51.186;6.926;2023-06-19T01:27:53;4.57;;;3.67;;
65238;SDS011;51827;51.186;6.926;2023-06-19T01:28:53;5.93;;;4.03;;
65238;SDS011;51827;51.186;6.926;2023-06-19T01:30:56;6.05;;;3.97;;
65238;SDS011;51827;51.186;6.926;2023-06-19T01:32:02;5.38;;;3.90;;
65238;SDS011;51827;51.186;6.926;2023-06-19T01:33:12;7.65;;;4.03;;
65238;SDS011;51827;51.186;6.926;2023-06-19T01:34:16;5.93;;;3.83;;
65238;SDS011;51827;51.186;6.926;2023-06-19T01:35:19;6.05;;;4.25;;
65238;SDS011;51827;51.186;6.926;2023-06-19T01:36:21;5.93;;;3.97;;
65238;SDS011;51827;51.186;6.926;2023-06-19T01:37:24;5.85;;;3.90;;
65238;SDS011;51827;51.186;6.926;2023-06-19T01:39:25;5.33;;;3.97;;
65238;SDS011;51827;51.186;6.926;2023-06-19T01:40:26;6.50;;;3.95;;
65238;SDS011;51827;51.186;6.926;2023-06-19T01:41:28;6.05;;;4.18;;
65238;SDS011;51827;51.186;6.926;2023-06-19T01:42:30;4.75;;;3.80;;
65238;SDS011;51827;51.186;6.926;2023-06-19T01:44:31;5.90;;;4.07;;
65238;SDS011;51827;51.186;6.926;2023-06-19T01:45:32;7.30;;;4.18;;
65238;SDS011;51827;51.186;6.926;2023-06-19T01:46:33;5.15;;;3.88;;
65238;SDS011;51827;51.186;6.926;2023-06-19T01:47:36;7.00;;;4.07;;
65238;SDS011;51827;51.186;6.926;2023-06-19T01:48:37;5.30;;;4.10;;
65238;SDS011;51827;51.186;6.926;2023-06-19T01:49:38;6.53;;;3.92;;
65238;SDS011;51827;51.186;6.926;2023-06-19T01:50:38;5.72;;;4.03;;
65238;SDS011;51827;51.186;6.926;2023-06-19T01:51:39;6.30;;;4.22;;
65238;SDS011;51827;51.186;6.926;2023-06-19T01:52:39;5.73;;;4.50;;
65238;SDS011;51827;51.186;6.926;2023-06-19T01:53:39;6.60;;;3.93;;
65238;SDS011;51827;51.186;6.926;2023-06-19T01:54:40;5.17;;;4.23;;
65238;SDS011;51827;51.186;6.926;2023-06-19T01:55:40;8.40;;;3.90;;
65238;SDS011;51827;51.186;6.926;2023-06-19T01:56:41;4.70;;;3.90;;
65238;SDS011;51827;51.186;6.926;2023-06-19T01:57:41;6.50;;;4.30;;
65238;SDS011;51827;51.186;6.926;2023-06-19T01:58:41;6.70;;;4.33;;
65238;SDS011;51827;51.186;6.926;2023-06-19T01:59:41;6.07;;;4.50;;
65238;SDS011;51827;51.186;6.926;2023-06-19T02:00:42;5.57;;;4.30;;
65238;SDS011;51827;51.186;6.926;2023-06-19T02:01:42;5.60;;;4.13;;
65238;SDS011;51827;51.186;6.926;2023-06-19T02:02:42;4.90;;;3.90;;
65238;SDS011;51827;51.186;6.926;2023-06-19T02:03:43;5.63;;;4.32;;
65238;SDS011;51827;51.186;6.926;2023-06-19T02:04:43;5.53;;;4.40;;
65238;SDS011;51827;51.186;6.926;2023-06-19T02:05:43;5.93;;;4.40;;
65238;SDS011;51827;51.186;6.926;2023-06-19T02:06:43;6.13;;;4.27;;
65238;SDS011;51827;51.186;6.926;2023-06-19T02:07:44;5.80;;;3.90;;
65238;SDS011;51827;51.186;6.926;2023-06-19T02:08:44;6.30;;;4.23;;
65238;SDS011;51827;51.186;6.926;2023-06-19T02:09:44;6.03;;;4.13;;
65238;SDS011;51827;51.186;6.926;2023-06-19T02:10:44;5.20;;;4.10;;
65238;SDS011;51827;51.186;6.926;2023-06-19T02:11:45;7.27;;;4.20;;
65238;SDS011;51827;51.186;6.926;2023-06-19T02:12:45;7.70;;;4.47;;
65238;SDS011;51827;51.186;6.926;2023-06-19T02:13:45;5.50;;;4.10;;
65238;SDS011;51827;51.186;6.926;2023-06-19T02:14:45;6.93;;;4.03;;
65238;SDS011;51827;51.186;6.926;2023-06-19T02:15:46;5.10;;;3.73;;
65238;SDS011;51827;51.186;6.926;2023-06-19T02:16:46;4.90;;;3.90;;
65238;SDS011;51827;51.186;6.926;2023-06-19T02:17:46;5.60;;;4.27;;
65238;SDS011;51827;51.186;6.926;2023-06-19T02:18:46;5.97;;;4.30;;
65238;SDS011;51827;51.186;6.926;2023-06-19T02:19:46;6.13;;;4.07;;
65238;SDS011;51827;51.186;6.926;2023-06-19T02:20:47;5.97;;;3.93;;
65238;SDS011;51827;51.186;6.926;2023-06-19T02:21:47;6.33;;;4.67;;
65238;SDS011;51827;51.186;6.926;2023-06-19T02:22:47;5.93;;;4.00;;
65238;SDS011;51827;51.186;6.926;2023-06-19T02:23:48;7.67;;;4.13;;
65238;SDS011;51827;51.186;6.926;2023-06-19T02:24:48;5.60;;;4.00;;
65238;SDS011;51827;51.186;6.926;2023-06-19T02:25:48;6.17;;;4.47;;
65238;SDS011;51827;51.186;6.926;2023-06-19T02:26:48;4.47;;;3.70;;
65238;SDS011;51827;51.186;6.926;2023-06-19T02:27:49;6.17;;;4.37;;
65238;SDS011;51827;51.186;6.926;2023-06-19T02:28:49;6.00;;;3.87;;
65238;SDS011;51827;51.186;6.926;2023-06-19T02:29:49;5.07;;;3.77;;
65238;SDS011;51827;51.186;6.926;2023-06-19T02:30:49;6.90;;;4.50;;
65238;SDS011;51827;51.186;6.926;2023-06-19T02:31:50;6.75;;;4.20;;
65238;SDS011;51827;51.186;6.926;2023-06-19T02:32:50;5.82;;;3.85;;
65238;SDS011;51827;51.186;6.926;2023-06-19T02:33:50;6.83;;;4.50;;
65238;SDS011;51827;51.186;6.926;2023-06-19T02:34:51;6.77;;;4.30;;
65238;SDS011;51827;51.186;6.926;2023-06-19T02:35:51;5.33;;;4.67;;
65238;SDS011;51827;51.186;6.926;2023-06-19T02:36:51;5.90;;;4.67;;
65238;SDS011;51827;51.186;6.926;2023-06-19T02:37:51;8.93;;;4.23;;
65238;SDS011;51827;51.186;6.926;2023-06-19T02:38:51;7.07;;;4.53;;
65238;SDS011;51827;51.186;6.926;2023-06-19T02:39:52;6.07;;;4.60;;
65238;SDS011;51827;51.186;6.926;2023-06-19T02:40:52;7.13;;;4.20;;
65238;SDS011;51827;51.186;6.926;2023-06-19T02:41:52;8.97;;;4.40;;
65238;SDS011;51827;51.186;6.926;2023-06-19T02:42:52;6.57;;;4.33;;
65238;SDS011;51827;51.186;6.926;2023-06-19T02:43:53;7.20;;;4.50;;
65238;SDS011;51827;51.186;6.926;2023-06-19T02:44:53;6.07;;;4.60;;
65238;SDS011;51827;51.186;6.926;2023-06-19T02:45:53;8.40;;;4.60;;
65238;SDS011;51827;51.186;6.926;2023-06-19T02:46:54;6.67;;;4.43;;
65238;SDS011;51827;51.186;6.926;2023-06-19T02:47:54;7.20;;;4.63;;
65238;SDS011;51827;51.186;6.926;2023-06-19T02:48:54;11.97;;;4.83;;
65238;SDS011;51827;51.186;6.926;2023-06-19T02:49:54;6.37;;;4.67;;
65238;SDS011;51827;51.186;6.926;2023-06-19T02:50:55;6.97;;;4.47;;
65238;SDS011;51827;51.186;6.926;2023-06-19T02:51:55;7.93;;;4.77;;
65238;SDS011;51827;51.186;6.926;2023-06-19T02:52:55;6.20;;;4.53;;
65238;SDS011;51827;51.186;6.926;2023-06-19T02:53:56;6.27;;;4.50;;
65238;SDS011;51827;51.186;6.926;2023-06-19T02:54:56;5.60;;;4.20;;
65238;SDS011;51827;51.186;6.926;2023-06-19T02:55:56;6.47;;;4.70;;
65238;SDS011;51827;51.186;6.926;2023-06-19T02:56:56;7.10;;;4.50;;
65238;SDS011;51827;51.186;6.926;2023-06-19T02:57:56;5.47;;;4.30;;
65238;SDS011;51827;51.186;6.926;2023-06-19T02:58:57;4.97;;;3.83;;
65238;SDS011;51827;51.186;6.926;2023-06-19T02:59:57;6.73;;;4.30;;
65238;SDS011;51827;51.186;6.926;2023-06-19T03:00:57;7.47;;;4.30;;
65238;SDS011;51827;51.186;6.926;2023-06-19T03:01:57;6.87;;;4.30;;
65238;SDS011;51827;51.186;6.926;2023-06-19T03:02:58;5.87;;;4.30;;
65238;SDS011;51827;51.186;6.926;2023-06-19T03:03:58;5.90;;;4.20;;
65238;SDS011;51827;51.186;6.926;2023-06-19T03:04:58;5.50;;;4.00;;
65238;SDS011;51827;51.186;6.926;2023-06-19T03:05:58;6.53;;;4.33;;
65238;SDS011;51827;51.186;6.926;2023-06-19T03:06:59;6.87;;;4.50;;
65238;SDS011;51827;51.186;6.926;2023-06-19T03:07:59;8.43;;;4.50;;
65238;SDS011;51827;51.186;6.926;2023-06-19T03:08:59;6.93;;;4.40;;
65238;SDS011;51827;51.186;6.926;2023-06-19T03:09:59;7.47;;;4.60;;
65238;SDS011;51827;51.186;6.926;2023-06-19T03:11:00;5.80;;;4.57;;
65238;SDS011;51827;51.186;6.926;2023-06-19T03:12:00;7.20;;;4.20;;
65238;SDS011;51827;51.186;6.926;2023-06-19T03:13:00;5.73;;;4.37;;
65238;SDS011;51827;51.186;6.926;2023-06-19T03:14:01;6.70;;;4.27;;
65238;SDS011;51827;51.186;6.926;2023-06-19T03:15:01;5.57;;;3.73;;
65238;SDS011;51827;51.186;6.926;2023-06-19T03:16:01;12.73;;;4.40;;
65238;SDS011;51827;51.186;6.926;2023-06-19T03:17:01;6.43;;;3.87;;
65238;SDS011;51827;51.186;6.926;2023-06-19T03:18:02;6.33;;;3.70;;
65238;SDS011;51827;51.186;6.926;2023-06-19T03:19:02;7.40;;;3.83;;
65238;SDS011;51827;51.186;6.926;2023-06-19T03:20:02;4.33;;;3.23;;
65238;SDS011;51827;51.186;6.926;2023-06-19T03:21:03;10.95;;;3.55;;
65238;SDS011;51827;51.186;6.926;2023-06-19T03:22:03;7.00;;;3.70;;
65238;SDS011;51827;51.186;6.926;2023-06-19T03:23:04;5.38;;;3.72;;
65238;SDS011;51827;51.186;6.926;2023-06-19T03:24:04;4.40;;;3.50;;
65238;SDS011;51827;51.186;6.926;2023-06-19T03:25:04;4.57;;;3.13;;
65238;SDS011;51827;51.186;6.926;2023-06-19T03:26:05;5.15;;;3.60;;
65238;SDS011;51827;51.186;6.926;2023-06-19T03:27:05;4.60;;;3.23;;
65238;SDS011;51827;51.186;6.926;2023-06-19T03:28:06;4.55;;;3.25;;
65238;SDS011;51827;51.186;6.926;2023-06-19T03:29:06;6.57;;;3.27;;
65238;SDS011;51827;51.186;6.926;2023-06-19T03:30:07;6.03;;;3.67;;
65238;SDS011;51827;51.186;6.926;2023-06-19T03:31:07;6.65;;;3.33;;
65238;SDS011;51827;51.186;6.926;2023-06-19T03:32:08;4.23;;;3.23;;
65238;SDS011;51827;51.186;6.926;2023-06-19T03:33:08;5.57;;;3.20;;
65238;SDS011;51827;51.186;6.926;2023-06-19T03:34:08;4.53;;;3.47;;
65238;SDS011;51827;51.186;6.926;2023-06-19T03:35:08;4.80;;;2.90;;
65238;SDS011;51827;51.186;6.926;2023-06-19T03:36:09;5.20;;;3.47;;
65238;SDS011;51827;51.186;6.926;2023-06-19T03:37:09;5.90;;;3.00;;
65238;SDS011;51827;51.186;6.926;2023-06-19T03:38:09;4.60;;;3.20;;
65238;SDS011;51827;51.186;6.926;2023-06-19T03:39:09;3.50;;;2.70;;
65238;SDS011;51827;51.186;6.926;2023-06-19T03:40:10;7.33;;;3.10;;
65238;SDS011;51827;51.186;6.926;2023-06-19T03:41:10;4.03;;;3.00;;
65238;SDS011;51827;51.186;6.926;2023-06-19T03:42:10;4.30;;;2.90;;
65238;SDS011;51827;51.186;6.926;2023-06-19T03:43:11;5.03;;;2.90;;
65238;SDS011;51827;51.186;6.926;2023-06-19T03:44:11;4.95;;;2.80;;
65238;SDS011;51827;51.186;6.926;2023-06-19T03:45:12;4.80;;;2.70;;
65238;SDS011;51827;51.186;6.926;2023-06-19T03:46:12;4.47;;;2.63;;
65238;SDS011;51827;51.186;6.926;2023-06-19T03:47:12;3.67;;;2.30;;
65238;SDS011;51827;51.186;6.926;2023-06-19T03:49:15;3.97;;;2.92;;
65238;SDS011;51827;51.186;6.926;2023-06-19T03:50:15;4.53;;;3.33;;
65238;SDS011;51827;51.186;6.926;2023-06-19T03:51:15;5.77;;;3.20;;
65238;SDS011;51827;51.186;6.926;2023-06-19T03:52:16;3.77;;;2.30;;
65238;SDS011;51827;51.186;6.926;2023-06-19T03:53:16;2.93;;;2.30;;
65238;SDS011;51827;51.186;6.926;2023-06-19T03:54:16;8.20;;;3.17;;
65238;SDS011;51827;51.186;6.926;2023-06-19T03:55:17;4.80;;;2.70;;
65238;SDS011;51827;51.186;6.926;2023-06-19T03:56:17;6.15;;;3.20;;
65238;SDS011;51827;51.186;6.926;2023-06-19T03:57:20;4.22;;;2.65;;
65238;SDS011;51827;51.186;6.926;2023-06-19T03:58:20;4.30;;;2.47;;
65238;SDS011;51827;51.186;6.926;2023-06-19T03:59:21;6.13;;;2.50;;
65238;SDS011;51827;51.186;6.926;2023-06-19T04:00:21;5.40;;;2.70;;
65238;SDS011;51827;51.186;6.926;2023-06-19T04:01:21;4.07;;;2.43;;
65238;SDS011;51827;51.186;6.926;2023-06-19T04:02:21;3.77;;;2.77;;
65238;SDS011;51827;51.186;6.926;2023-06-19T04:03:22;3.80;;;2.50;;
65238;SDS011;51827;51.186;6.926;2023-06-19T04:04:22;5.83;;;2.80;;
65238;SDS011;51827;51.186;6.926;2023-06-19T04:05:22;6.70;;;2.73;;
65238;SDS011;51827;51.186;6.926;2023-06-19T04:06:22;4.60;;;2.63;;
65238;SDS011;51827;51.186;6.926;2023-06-19T04:07:23;4.10;;;2.60;;
65238;SDS011;51827;51.186;6.926;2023-06-19T04:08:23;5.70;;;2.80;;
65238;SDS011;51827;51.186;6.926;2023-06-19T04:09:23;5.37;;;2.90;;
65238;SDS011;51827;51.186;6.926;2023-06-19T04:10:23;4.13;;;2.83;;
65238;SDS011;51827;51.186;6.926;2023-06-19T04:11:24;3.60;;;2.80;;
65238;SDS011;51827;51.186;6.926;2023-06-19T04:12:24;6.30;;;2.50;;
65238;SDS011;51827;51.186;6.926;2023-06-19T04:13:24;3.70;;;2.80;;
65238;SDS011;51827;51.186;6.926;2023-06-19T04:14:25;6.07;;;2.70;;
65238;SDS011;51827;51.186;6.926;2023-06-19T04:15:25;2.97;;;2.30;;
65238;SDS011;51827;51.186;6.926;2023-06-19T04:16:25;3.77;;;2.50;;
65238;SDS011;51827;51.186;6.926;2023-06-19T04:17:25;4.60;;;2.47;;
65238;SDS011;51827;51.186;6.926;2023-06-19T04:18:26;6.73;;;2.60;;
65238;SDS011;51827;51.186;6.926;2023-06-19T04:19:26;4.63;;;2.73;;
65238;SDS011;51827;51.186;6.926;2023-06-19T04:20:26;4.17;;;2.50;;
65238;SDS011;51827;51.186;6.926;2023-06-19T04:21:27;8.37;;;2.80;;
65238;SDS011;51827;51.186;6.926;2023-06-19T04:22:27;4.33;;;2.73;;
65238;SDS011;51827;51.186;6.926;2023-06-19T04:23:27;3.50;;;2.60;;
65238;SDS011;51827;51.186;6.926;2023-06-19T04:24:27;5.10;;;2.83;;
65238;SDS011;51827;51.186;6.926;2023-06-19T04:25:28;7.93;;;2.90;;
65238;SDS011;51827;51.186;6.926;2023-06-19T04:26:28;6.10;;;2.70;;
65238;SDS011;51827;51.186;6.926;2023-06-19T04:27:28;4.27;;;2.70;;
65238;SDS011;51827;51.186;6.926;2023-06-19T04:28:28;5.83;;;2.70;;
65238;SDS011;51827;51.186;6.926;2023-06-19T04:29:28;6.03;;;2.97;;
65238;SDS011;51827;51.186;6.926;2023-06-19T04:30:29;5.27;;;3.03;;
65238;SDS011;51827;51.186;6.926;2023-06-19T04:31:30;10.20;;;2.92;;
65238;SDS011;51827;51.186;6.926;2023-06-19T04:32:30;5.60;;;2.80;;
65238;SDS011;51827;51.186;6.926;2023-06-19T04:33:30;5.47;;;2.37;;
65238;SDS011;51827;51.186;6.926;2023-06-19T04:34:31;7.63;;;2.60;;
65238;SDS011;51827;51.186;6.926;2023-06-19T04:35:31;10.23;;;2.73;;
65238;SDS011;51827;51.186;6.926;2023-06-19T04:36:31;6.60;;;2.65;;
65238;SDS011;51827;51.186;6.926;2023-06-19T04:37:32;7.17;;;2.70;;
65238;SDS011;51827;51.186;6.926;2023-06-19T04:38:32;6.67;;;2.53;;
65238;SDS011;51827;51.186;6.926;2023-06-19T04:39:32;4.03;;;2.50;;
65238;SDS011;51827;51.186;6.926;2023-06-19T04:40:32;9.18;;;2.70;;
65238;SDS011;51827;51.186;6.926;2023-06-19T04:41:33;4.17;;;2.63;;
65238;SDS011;51827;51.186;6.926;2023-06-19T04:42:33;6.23;;;2.60;;
65238;SDS011;51827;51.186;6.926;2023-06-19T04:43:33;4.67;;;2.70;;
65238;SDS011;51827;51.186;6.926;2023-06-19T04:44:33;5.00;;;2.40;;
65238;SDS011;51827;51.186;6.926;2023-06-19T04:45:34;4.17;;;2.60;;
65238;SDS011;51827;51.186;6.926;2023-06-19T04:46:34;4.13;;;2.50;;
65238;SDS011;51827;51.186;6.926;2023-06-19T04:47:35;5.38;;;2.60;;
65238;SDS011;51827;51.186;6.926;2023-06-19T04:48:35;4.78;;;2.70;;
65238;SDS011;51827;51.186;6.926;2023-06-19T04:49:35;4.47;;;2.70;;
65238;SDS011;51827;51.186;6.926;2023-06-19T04:50:35;5.60;;;2.77;;
65238;SDS011;51827;51.186;6.926;2023-06-19T04:51:36;4.17;;;2.57;;
65238;SDS011;51827;51.186;6.926;2023-06-19T04:52:36;3.03;;;2.23;;
65238;SDS011;51827;51.186;6.926;2023-06-19T04:53:39;3.70;;;2.53;;
65238;SDS011;51827;51.186;6.926;2023-06-19T04:54:40;5.70;;;2.60;;
65238;SDS011;51827;51.186;6.926;2023-06-19T04:55:40;5.63;;;2.47;;
65238;SDS011;51827;51.186;6.926;2023-06-19T04:56:40;6.57;;;2.77;;
65238;SDS011;51827;51.186;6.926;2023-06-19T04:57:40;4.57;;;2.43;;
65238;SDS011;51827;51.186;6.926;2023-06-19T04:58:41;8.33;;;2.70;;
65238;SDS011;51827;51.186;6.926;2023-06-19T04:59:44;4.32;;;2.55;;
65238;SDS011;51827;51.186;6.926;2023-06-19T05:00:47;3.47;;;2.38;;
65238;SDS011;51827;51.186;6.926;2023-06-19T05:01:47;5.72;;;2.50;;
65238;SDS011;51827;51.186;6.926;2023-06-19T05:02:47;4.70;;;2.43;;
65238;SDS011;51827;51.186;6.926;2023-06-19T05:03:48;3.67;;;2.47;;
65238;SDS011;51827;51.186;6.926;2023-06-19T05:04:48;4.43;;;2.50;;
65238;SDS011;51827;51.186;6.926;2023-06-19T05:05:48;4.23;;;2.70;;
65238;SDS011;51827;51.186;6.926;2023-06-19T05:06:49;4.30;;;2.67;;
65238;SDS011;51827;51.186;6.926;2023-06-19T05:07:49;4.57;;;2.60;;
65238;SDS011;51827;51.186;6.926;2023-06-19T05:08:50;6.60;;;2.90;;
65238;SDS011;51827;51.186;6.926;2023-06-19T05:09:50;3.97;;;2.80;;
65238;SDS011;51827;51.186;6.926;2023-06-19T05:10:51;3.93;;;2.50;;
65238;SDS011;51827;51.186;6.926;2023-06-19T05:11:51;4.27;;;2.60;;
65238;SDS011;51827;51.186;6.926;2023-06-19T05:12:51;3.53;;;2.47;;
65238;SDS011;51827;51.186;6.926;2023-06-19T05:13:51;4.37;;;2.83;;
65238;SDS011;51827;51.186;6.926;2023-06-19T05:14:52;7.67;;;2.63;;
65238;SDS011;51827;51.186;6.926;2023-06-19T05:15:52;5.23;;;2.60;;
65238;SDS011;51827;51.186;6.926;2023-06-19T05:16:52;4.93;;;2.43;;
65238;SDS011;51827;51.186;6.926;2023-06-19T05:17:53;4.43;;;2.70;;
65238;SDS011;51827;51.186;6.926;2023-06-19T05:18:54;6.07;;;2.80;;
65238;SDS011;51827;51.186;6.926;2023-06-19T05:19:54;4.05;;;2.55;;
65238;SDS011;51827;51.186;6.926;2023-06-19T05:20:54;5.67;;;2.70;;
65238;SDS011;51827;51.186;6.926;2023-06-19T05:21:54;7.10;;;2.53;;
65238;SDS011;51827;51.186;6.926;2023-06-19T05:22:55;3.60;;;2.60;;
65238;SDS011;51827;51.186;6.926;2023-06-19T05:23:55;4.00;;;2.40;;
65238;SDS011;51827;51.186;6.926;2023-06-19T05:24:55;3.93;;;2.50;;
65238;SDS011;51827;51.186;6.926;2023-06-19T05:25:55;6.70;;;2.33;;
65238;SDS011;51827;51.186;6.926;2023-06-19T05:26:56;4.77;;;2.50;;
65238;SDS011;51827;51.186;6.926;2023-06-19T05:27:56;3.20;;;2.13;;
65238;SDS011;51827;51.186;6.926;2023-06-19T05:28:56;3.90;;;2.47;;
65238;SDS011;51827;51.186;6.926;2023-06-19T05:29:56;6.00;;;2.67;;
65238;SDS011;51827;51.186;6.926;2023-06-19T05:30:56;3.93;;;2.53;;
65238;SDS011;51827;51.186;6.926;2023-06-19T05:31:57;3.60;;;2.60;;
65238;SDS011;51827;51.186;6.926;2023-06-19T05:32:57;3.97;;;2.70;;
65238;SDS011;51827;51.186;6.926;2023-06-19T05:33:57;5.13;;;2.60;;
65238;SDS011;51827;51.186;6.926;2023-06-19T05:34:57;4.20;;;2.70;;
65238;SDS011;51827;51.186;6.926;2023-06-19T05:35:58;3.33;;;2.40;;
65238;SDS011;51827;51.186;6.926;2023-06-19T05:36:58;4.50;;;2.47;;
65238;SDS011;51827;51.186;6.926;2023-06-19T05:37:58;5.22;;;2.67;;
65238;SDS011;51827;51.186;6.926;2023-06-19T05:38:58;4.57;;;2.50;;
65238;SDS011;51827;51.186;6.926;2023-06-19T05:39:59;4.53;;;2.57;;
65238;SDS011;51827;51.186;6.926;2023-06-19T05:40:59;3.87;;;2.53;;
65238;SDS011;51827;51.186;6.926;2023-06-19T05:41:59;5.53;;;3.07;;
65238;SDS011;51827;51.186;6.926;2023-06-19T05:42:59;6.27;;;2.83;;
65238;SDS011;51827;51.186;6.926;2023-06-19T05:44:00;4.27;;;2.70;;
65238;SDS011;51827;51.186;6.926;2023-06-19T05:45:00;3.90;;;2.20;;
65238;SDS011;51827;51.186;6.926;2023-06-19T05:46:00;5.57;;;2.80;;
65238;SDS011;51827;51.186;6.926;2023-06-19T05:47:01;3.53;;;2.60;;
65238;SDS011;51827;51.186;6.926;2023-06-19T05:48:01;4.67;;;2.43;;
65238;SDS011;51827;51.186;6.926;2023-06-19T05:49:01;3.53;;;2.47;;
65238;SDS011;51827;51.186;6.926;2023-06-19T05:50:01;2.87;;;2.10;;
65238;SDS011;51827;51.186;6.926;2023-06-19T05:51:02;3.97;;;2.53;;
65238;SDS011;51827;51.186;6.926;2023-06-19T05:52:02;4.60;;;2.53;;
65238;SDS011;51827;51.186;6.926;2023-06-19T05:53:03;4.82;;;2.50;;
65238;SDS011;51827;51.186;6.926;2023-06-19T05:54:03;4.47;;;2.60;;
65238;SDS011;51827;51.186;6.926;2023-06-19T05:55:04;4.57;;;2.28;;
65238;SDS011;51827;51.186;6.926;2023-06-19T05:56:04;4.30;;;2.70;;
65238;SDS011;51827;51.186;6.926;2023-06-19T05:57:05;3.70;;;2.40;;
65238;SDS011;51827;51.186;6.926;2023-06-19T05:58:05;3.90;;;2.35;;
65238;SDS011;51827;51.186;6.926;2023-06-19T05:59:06;3.50;;;2.23;;
65238;SDS011;51827;51.186;6.926;2023-06-19T06:00:06;4.37;;;2.63;;
65238;SDS011;51827;51.186;6.926;2023-06-19T06:01:07;4.10;;;2.67;;
65238;SDS011;51827;51.186;6.926;2023-06-19T06:02:07;3.43;;;2.30;;
65238;SDS011;51827;51.186;6.926;2023-06-19T06:03:08;4.05;;;2.50;;
65238;SDS011;51827;51.186;6.926;2023-06-19T06:04:08;3.73;;;2.27;;
65238;SDS011;51827;51.186;6.926;2023-06-19T06:05:08;4.07;;;2.40;;
65238;SDS011;51827;51.186;6.926;2023-06-19T06:06:09;3.80;;;2.70;;
65238;SDS011;51827;51.186;6.926;2023-06-19T06:07:09;3.97;;;2.40;;
65238;SDS011;51827;51.186;6.926;2023-06-19T06:08:09;3.97;;;2.40;;
65238;SDS011;51827;51.186;6.926;2023-06-19T06:09:09;3.33;;;2.35;;
65238;SDS011;51827;51.186;6.926;2023-06-19T06:10:10;3.50;;;2.50;;
65238;SDS011;51827;51.186;6.926;2023-06-19T06:11:10;3.95;;;2.47;;
65238;SDS011;51827;51.186;6.926;2023-06-19T06:12:11;3.33;;;2.37;;
65238;SDS011;51827;51.186;6.926;2023-06-19T06:13:11;4.00;;;2.37;;
65238;SDS011;51827;51.186;6.926;2023-06-19T06:14:11;3.50;;;2.50;;